Terminal Aerodrome Forecast
Issued by NWS

Home | Current Version | Previous Version | Text Only | Print | Product List | Glossary On
Versions: 1 2 3 4 5 6 7 8 9 10 11 12 13 14 15 16 17 18 19 20 21 22 23 24 25
000
FTUS45 KPSR 271100
TAFSDL
TAF
KSDL 271120Z 2712/2812 VRB03KT P6SM BKN060 BKN100
      TEMPO 2712/2716 BKN050
     FM272000 VRB03KT P6SM BKN070
     FM272300 VRB03KT P6SM SCT070
     FM280400 VRB03KT P6SM SKC=

USA.gov is the U.S. government's official web portal to all federal, state and local government web resources and services.